createdAt,value
2022-09-06T00:19:07.002Z,1017.84
2022-09-06T00:47:34.000Z,1017.77
2022-09-06T01:16:01.433Z,1018.85
2022-09-06T01:44:21.588Z,1019.18
2022-09-06T02:12:51.147Z,1018.92
2022-09-06T02:41:22.472Z,1018.83
2022-09-06T03:09:37.297Z,1018.59
2022-09-06T03:38:44.688Z,1018.32
2022-09-06T04:07:59.098Z,1018.23
2022-09-06T04:36:52.095Z,1018.31
2022-09-06T05:05:53.994Z,1018.58
2022-09-06T05:34:53.513Z,1018.94
2022-09-06T06:03:13.401Z,1019.3
2022-09-06T06:31:23.811Z,1019.24
2022-09-06T07:00:28.821Z,1018.98
2022-09-06T07:28:55.365Z,1018.85
2022-09-06T07:57:51.497Z,1018.41
2022-09-06T08:26:59.865Z,1019.11
2022-09-06T08:56:11.339Z,1019.64
2022-09-06T09:25:07.148Z,1019.27
2022-09-06T09:53:30.482Z,1019.01
2022-09-06T10:21:56.949Z,1018.61
2022-09-06T10:50:29.954Z,1018.39
2022-09-06T11:19:30.694Z,1018.32
2022-09-06T11:48:30.802Z,1018.36
2022-09-06T12:17:41.813Z,1017.96
2022-09-06T12:46:40.837Z,1017.9
2022-09-06T13:15:41.445Z,1017.62
2022-09-06T13:44:46.090Z,1017.36
2022-09-06T14:13:52.663Z,1017.06
2022-09-06T14:42:51.069Z,1016.92
2022-09-06T15:11:28.882Z,1016.57
2022-09-06T15:40:34.704Z,1016.29
2022-09-06T16:09:44.561Z,1015.98
2022-09-06T16:38:48.588Z,1015.54
2022-09-06T17:07:54.938Z,1015.42
2022-09-06T17:37:00.969Z,1015.28
2022-09-06T18:06:03.983Z,1015.41
2022-09-06T18:34:20.499Z,1015.65
2022-09-06T19:02:37.675Z,1015.75
2022-09-06T19:30:58.039Z,1015.76
2022-09-06T19:59:17.143Z,1015.88
2022-09-06T20:27:52.847Z,1015.8
2022-09-06T20:56:19.735Z,1015.66
2022-09-06T21:24:37.733Z,1015.72
2022-09-06T21:52:59.811Z,1015.72
2022-09-06T22:21:10.490Z,1016.05
2022-09-06T22:49:36.866Z,1015.76
2022-09-06T23:18:36.695Z,1015.27
2022-09-06T23:47:05.680Z,1015.26
